Irving, TX

5:08 PM CST on January 31, 2015 (GMT -0600)
Addison | Change Station
CLOSE
Current Station
Airport
Location: Dallas Addison,
Elevation: 643 ft
Nearby Weather Stations

Elev 643 ft 32.97 °N, 96.84 °W | Updated 16 minutes ago

Rain
Rain
50 °F
Feels Like 50 °F
N
7
Wind Variable Wind from SE

Today
High -- | Low -- °F
--% Chance of Precip.
Yesterday
High -- | Low -- °F
Precip. -- in
7:23 AM 5:59 PM
Waxing Gibbous, 92% visible
Pressure 30.00 in
Visibility 4.0 miles
Clouds Scattered Clouds 2300 ft
Overcast 3200 ft
Dew Point 46 °F
Humidity 87%
Rainfall 0.00 in
Snow Depth Not available.
UV 0 out of 12
Pollen 7.00 out of 12
Air Quality Not available.
Flu Activity Not available.
METAR KADS 312252Z 13006KT 4SM -RA SCT023 OVC032 10/08 A3000

More Conditions Fewer Conditions

Pressure 30.00 in
Visibility 4.0 miles
Clouds Scattered Clouds 2300 ft
Overcast 3200 ft
Dew Point 46 °F
Humidity 87%
Rainfall 0.00 in
Snow Depth Not available.
UV 0 out of 12
Pollen 7.00 out of 12
Air Quality Not available.
Flu Activity Not available.
METAR KADS 312252Z 13006KT 4SM -RA SCT023 OVC032 10/08 A3000

More Conditions Fewer Conditions

Nowcast | as of 2:03 PM CST on January 31, 2015

Rain will continue to spread northeast across the region this afternoon through tonight. Most of the rain was occurring along and west of the I-35 corridor...but there were small patches occurring to the east. So far rain amounts have been light overall... but they should increase as the day wears on. Amounts through 6 PM...might average around one tenth of an inch from I-35 westward with more expected over night area wide. Otherwise...skies will remain cloudy with light southeast winds of 10 to 15 mph. Temperatures will remain in the mid 40s to around 50 where the rain is steady...but in the low to upper 50s elsewhere.

×

10-Day Weather Forecast

Almanac

Astronomy

Jan. 31, 2015 Rise Set
Actual Time
Civil Twilight
Nautical Twilight
Astronomical Twilight
Moon
Length of Visible Light
Length of Day
Tomorrow will be .
, % of the Moon is Illuminated

Today's Extremes

State Highs State Lows

Community

WunderPhotos

Upload Photos

1,792,245 photos uploaded!

WunderBlogs® & News

Nearby

Air Quality

  Air Quality AQ Index Pollutant
Not available.

Snow Depth

Station Depth Elevation

Earthquake Activity

City Distance Mag. Time & Date
Minimum magnitude displayed is 2.5.

Coastal Water Temperatures

Place Temperature

Nearby Weather Stations